Aérodrome :
LOGIN :

S'inscrire | Disclaimer

   EN    FR    IT 

 










Légende :    VFR   VFR Marginal   IFR   IFR Intensif   IFR Très Intensif
Visi : 
Plafond : 
>= 8 km
>= 3000ft
5 à 8 km
1000 à 3000 ft
1500m à 5 km
500 à 1000 ft
800 à 1500m
200 à 500 ft
< 800m
< 200 ft
Symboles :   Orages  Brouillard  Fortes neiges  Fortes précipitations  Vent > 20 kt
SIGMETs :   Divers  Orages  Givrage  Turbulence  Onde Orograph.  Cendres Volcan.







- Altitude de l'aérodrome : 18 ft


LIPC - Cervia AFB Ravenna

DERNIER METAR :
  • 121255Z 23009G20KT 9999 SCT050 14/08 Q1009 RMK BKN BKN090 VIS MIN 9999 WIND THR11 23015KT WIND THR29 /////KT BLU

METARs EXPIRÉS :
  • 121155Z 20011KT 9999 FEW035 SCT050 12/10 Q1009 RMK BKN BKN100 VIS MIN 9999 WIND THR11 21009KT WIND THR29 /////KT BLU
  • 121055Z 19012KT 9999 FEW035 BKN050 12/11 Q1009

TAF TAF LIPC
Valide du 12 à 12h jusqu'au 12 à 21h UTC


121100Z 1212/1221 20010KT 9999 SCT035 BKN050
TEMPO 1212/1218 RA
Pas de NOTAMs connus pour ce terrain.
2 SIGMETs publiés pour la FIR Milano (LIMM) :
 
Givrage fort
LIMM SIGMET 9 VALID 121120/121420 LIIP
LIMM MILANO FIR SEV ICE OBS WI N4614 E01329 - N4546 E01103 - N4433 E01110 - N4437 E01313 - N4509 E01306 - N4536 E01331 - N4536 E01353 - N4614 E01329 FL180/280 STNR NC=
Turbulence forte
LIMM SIGMET 10 VALID 121115/121415 LIIP
LIMM MILANO FIR SEV TURB FCST N OF LINE N4407 E00658 - N4625 E00955 FL240/380 MOV E WKN=



MET'MAP, la Météo Aéronautique d'un coup d'oeil ! - Copyright ORBIFLY Décembre 2007 - Disclaimer

ORBIFLY MET'MAP TEAM :

Programmation & Développement : Alexandra Zaïnal
Conception & Développement : Baudouin d'Aumeries
Co-Programmation & Développement : Marc-Olivier Méhu
Soutien technique & logistique : Manuel Goepfert

Contact : metmap@orbifly.com




SOURCES & CREDITS :

   NOAA